createdAt,value
2017-03-06T00:00:54.425Z,7.75
2017-03-06T00:02:10.375Z,7.75
2017-03-06T00:03:24.409Z,7.74
2017-03-06T00:04:38.988Z,7.74
2017-03-06T00:05:54.170Z,7.77
2017-03-06T00:07:08.905Z,7.75
2017-03-06T00:08:23.444Z,7.77
2017-03-06T00:09:38.634Z,7.76
2017-03-06T00:10:53.486Z,7.77
2017-03-06T00:12:08.231Z,7.75
2017-03-06T00:13:24.175Z,7.72
2017-03-06T00:14:39.972Z,7.69
2017-03-06T00:15:55.260Z,7.64
2017-03-06T00:17:10.401Z,7.6
2017-03-06T00:18:26.313Z,7.59
2017-03-06T00:19:40.271Z,7.56
2017-03-06T00:20:55.001Z,7.55
2017-03-06T00:22:09.294Z,7.53
2017-03-06T00:23:24.650Z,7.51
2017-03-06T00:24:40.447Z,7.5
2017-03-06T00:25:56.122Z,7.51
2017-03-06T00:27:11.832Z,7.5
2017-03-06T00:28:27.231Z,7.46
2017-03-06T00:29:43.963Z,7.42
2017-03-06T00:31:00.228Z,7.36
2017-03-06T00:32:16.459Z,7.31
2017-03-06T00:33:32.054Z,7.31
2017-03-06T00:34:47.968Z,7.32
2017-03-06T00:36:34.579Z,7.3
2017-03-06T00:37:50.403Z,7.28
2017-03-06T00:39:08.638Z,7.29
2017-03-06T00:40:24.064Z,7.28
2017-03-06T00:41:40.311Z,7.26
2017-03-06T00:42:56.535Z,7.24
2017-03-06T00:44:12.626Z,7.24
2017-03-06T00:45:28.402Z,7.22
2017-03-06T00:46:46.471Z,7.19
2017-03-06T00:48:02.112Z,7.15
2017-03-06T00:49:16.683Z,7.13
2017-03-06T00:50:32.274Z,7.11
2017-03-06T00:51:48.269Z,7.11
2017-03-06T00:53:02.395Z,7.13
2017-03-06T00:54:17.581Z,7.15
2017-03-06T00:55:34.751Z,7.19
2017-03-06T00:56:49.975Z,7.22
2017-03-06T00:58:06.479Z,7.24
2017-03-06T00:59:22.586Z,7.24
2017-03-06T01:00:37.763Z,7.23
2017-03-06T01:01:51.938Z,7.22
2017-03-06T01:03:07.121Z,7.21
2017-03-06T01:04:21.730Z,7.18
2017-03-06T01:05:37.279Z,7.17
2017-03-06T01:06:51.974Z,7.17
2017-03-06T01:08:07.462Z,7.16
2017-03-06T01:09:21.485Z,7.11
2017-03-06T01:10:37.432Z,7.08
2017-03-06T01:11:53.405Z,7.05
2017-03-06T01:13:07.760Z,7
2017-03-06T01:14:23.882Z,6.97
2017-03-06T01:15:39.215Z,6.94
2017-03-06T01:16:53.738Z,6.91
2017-03-06T01:18:08.777Z,6.92
2017-03-06T01:19:23.365Z,6.88
2017-03-06T01:20:38.381Z,6.85
2017-03-06T01:21:53.695Z,6.87
2017-03-06T01:23:08.478Z,6.86
2017-03-06T01:24:23.439Z,6.85
2017-03-06T01:25:37.877Z,6.83
2017-03-06T01:26:53.874Z,6.8
2017-03-06T01:28:09.753Z,6.79
2017-03-06T01:29:26.837Z,6.8
2017-03-06T01:30:43.175Z,6.8
2017-03-06T01:31:58.034Z,6.79
2017-03-06T01:33:13.897Z,6.79
2017-03-06T01:34:28.819Z,6.78
2017-03-06T01:35:43.783Z,6.77
2017-03-06T01:36:58.753Z,6.75
2017-03-06T01:38:13.314Z,6.75
2017-03-06T01:39:28.144Z,6.73
2017-03-06T01:40:42.186Z,6.72
2017-03-06T01:41:58.905Z,6.69
2017-03-06T01:43:12.890Z,6.66
2017-03-06T01:44:28.458Z,6.63
2017-03-06T01:45:45.217Z,6.62
2017-03-06T01:47:00.488Z,6.61
2017-03-06T01:48:15.084Z,6.59
2017-03-06T01:49:30.902Z,6.58
2017-03-06T01:50:44.866Z,6.57
2017-03-06T01:51:59.699Z,6.57
2017-03-06T01:53:14.401Z,6.59
2017-03-06T01:54:28.949Z,6.61
2017-03-06T01:55:44.714Z,6.62
2017-03-06T01:57:01.842Z,6.63
2017-03-06T01:58:17.204Z,6.64
2017-03-06T01:59:31.672Z,6.65
2017-03-06T02:00:46.247Z,6.65
2017-03-06T02:02:00.952Z,6.65
2017-03-06T02:03:15.130Z,6.65
2017-03-06T02:04:31.606Z,6.67
2017-03-06T02:05:45.549Z,6.67
2017-03-06T02:06:59.750Z,6.66
2017-03-06T02:08:14.934Z,6.67
2017-03-06T02:09:29.482Z,6.68
2017-03-06T02:10:44.347Z,6.72
2017-03-06T02:11:58.920Z,6.73
2017-03-06T02:13:13.666Z,6.75
2017-03-06T02:14:28.325Z,6.77
2017-03-06T02:15:43.169Z,6.78
2017-03-06T02:16:57.321Z,6.77
2017-03-06T02:18:11.273Z,6.76
2017-03-06T02:19:26.015Z,6.77
2017-03-06T02:20:40.369Z,6.81
2017-03-06T02:21:55.056Z,6.82
2017-03-06T02:23:09.970Z,6.84
2017-03-06T02:24:24.605Z,6.85
2017-03-06T02:25:38.655Z,6.88
2017-03-06T02:26:53.031Z,6.9
2017-03-06T02:28:06.992Z,6.92
2017-03-06T02:29:21.659Z,6.92
2017-03-06T02:30:35.693Z,6.93
2017-03-06T02:31:49.846Z,6.97
2017-03-06T02:33:04.261Z,7
2017-03-06T02:34:18.540Z,7.02
2017-03-06T02:35:32.449Z,7.04
2017-03-06T02:36:47.516Z,7.05
2017-03-06T02:38:01.638Z,7.03
2017-03-06T02:39:16.096Z,7.04
2017-03-06T02:40:30.480Z,7.02
2017-03-06T02:41:45.525Z,7.02
2017-03-06T02:42:59.919Z,7.04
2017-03-06T02:44:14.677Z,7.06
2017-03-06T02:45:30.655Z,7.06
2017-03-06T02:46:45.486Z,7.05
2017-03-06T02:47:59.670Z,7.07
2017-03-06T02:49:13.902Z,7.08
2017-03-06T02:50:27.822Z,7.07
2017-03-06T02:51:42.489Z,7.03
2017-03-06T02:52:56.396Z,7.02
2017-03-06T02:54:11.055Z,6.99
2017-03-06T02:55:26.129Z,6.97
2017-03-06T02:56:40.511Z,6.98
2017-03-06T02:57:54.777Z,6.98
2017-03-06T02:59:08.823Z,6.99
2017-03-06T03:00:23.057Z,7
2017-03-06T03:01:38.721Z,7.01
2017-03-06T03:02:52.640Z,7.02
2017-03-06T03:04:06.851Z,7.05
2017-03-06T03:05:20.753Z,7.06
2017-03-06T03:06:35.238Z,7.07
2017-03-06T03:07:50.508Z,7.07
2017-03-06T03:09:05.532Z,7.09
2017-03-06T03:10:19.895Z,7.11
2017-03-06T03:11:34.230Z,7.12
2017-03-06T03:12:48.828Z,7.11
2017-03-06T03:14:02.979Z,7.14
2017-03-06T03:15:17.685Z,7.17
2017-03-06T03:16:31.812Z,7.19
2017-03-06T03:17:45.925Z,7.22
2017-03-06T03:19:00.247Z,7.24
2017-03-06T03:20:14.281Z,7.25
2017-03-06T03:21:30.705Z,7.27
2017-03-06T03:22:44.602Z,7.26
2017-03-06T03:23:58.897Z,7.27
2017-03-06T03:25:12.867Z,7.27
2017-03-06T03:26:27.125Z,7.27
2017-03-06T03:27:41.480Z,7.27
2017-03-06T03:28:56.120Z,7.29
2017-03-06T03:30:10.979Z,7.27
2017-03-06T03:31:25.596Z,7.24
2017-03-06T03:32:39.522Z,7.22
2017-03-06T03:33:54.187Z,7.23
2017-03-06T03:35:08.585Z,7.25
2017-03-06T03:36:23.311Z,7.25
2017-03-06T03:37:37.687Z,7.25
2017-03-06T03:38:51.818Z,7.25
2017-03-06T03:40:05.753Z,7.24
2017-03-06T03:41:20.005Z,7.26
2017-03-06T03:42:34.385Z,7.25
2017-03-06T03:43:48.960Z,7.24
2017-03-06T03:45:03.801Z,7.22
2017-03-06T03:46:18.470Z,7.2
2017-03-06T03:47:32.837Z,7.19
2017-03-06T03:48:46.968Z,7.17
2017-03-06T03:50:01.328Z,7.17
2017-03-06T03:51:16.168Z,7.16
2017-03-06T03:52:30.512Z,7.18
2017-03-06T03:53:45.166Z,7.2
2017-03-06T03:54:59.084Z,7.22
2017-03-06T03:56:13.256Z,7.23
2017-03-06T03:57:27.207Z,7.23
2017-03-06T03:58:48.143Z,7.22
2017-03-06T04:02:32.528Z,7.22
2017-03-06T04:03:46.922Z,7.23
2017-03-06T04:05:01.975Z,7.26
2017-03-06T04:06:15.873Z,7.27
2017-03-06T04:07:30.854Z,7.3
2017-03-06T04:08:44.730Z,7.3
2017-03-06T04:09:59.082Z,7.32
2017-03-06T04:11:13.467Z,7.33
2017-03-06T04:12:27.755Z,7.35
2017-03-06T04:13:42.127Z,7.38
2017-03-06T04:14:56.598Z,7.38
2017-03-06T04:16:10.980Z,7.39
2017-03-06T04:18:09.837Z,7.42
2017-03-06T04:19:24.075Z,7.37
2017-03-06T04:20:38.909Z,7.37
2017-03-06T04:21:53.079Z,7.38
2017-03-06T04:23:08.393Z,7.41
2017-03-06T04:24:22.488Z,7.4
2017-03-06T04:25:36.884Z,7.39
2017-03-06T04:26:51.955Z,7.4
2017-03-06T04:28:05.939Z,7.41
2017-03-06T04:29:20.060Z,7.46
2017-03-06T04:30:34.459Z,7.48
2017-03-06T04:31:49.081Z,7.49
2017-03-06T04:33:03.063Z,7.49
2017-03-06T04:34:17.610Z,7.49
2017-03-06T04:35:31.529Z,7.5
2017-03-06T04:36:45.717Z,7.51
2017-03-06T04:37:59.690Z,7.51
2017-03-06T04:39:14.422Z,7.49
2017-03-06T04:40:30.845Z,7.49
2017-03-06T04:41:44.863Z,7.49
2017-03-06T04:42:59.451Z,7.49
2017-03-06T04:45:07.172Z,7.5
2017-03-06T04:46:21.733Z,7.49
2017-03-06T04:47:35.667Z,7.46
2017-03-06T04:48:50.284Z,7.45
2017-03-06T04:50:04.251Z,7.44
2017-03-06T04:51:18.403Z,7.46
2017-03-06T04:52:33.085Z,7.47
2017-03-06T04:53:47.681Z,7.47
2017-03-06T04:55:01.628Z,7.47
2017-03-06T04:56:16.737Z,7.46
2017-03-06T04:57:31.136Z,7.47
2017-03-06T04:58:46.256Z,7.46
2017-03-06T05:00:00.287Z,7.46
2017-03-06T05:01:14.589Z,7.48
2017-03-06T05:02:28.512Z,7.49
2017-03-06T05:03:42.682Z,7.49
2017-03-06T05:04:57.373Z,7.49
2017-03-06T05:06:11.581Z,7.48
2017-03-06T05:07:25.982Z,7.5
2017-03-06T05:08:41.020Z,7.5
2017-03-06T05:09:54.970Z,7.5
2017-03-06T05:11:09.443Z,7.53
2017-03-06T05:12:23.378Z,7.54
2017-03-06T05:13:37.527Z,7.56
2017-03-06T05:14:51.941Z,7.59
2017-03-06T05:16:07.119Z,7.6
2017-03-06T05:17:21.817Z,7.6
2017-03-06T05:18:36.120Z,7.6
2017-03-06T05:19:50.151Z,7.6
2017-03-06T05:21:04.709Z,7.59
2017-03-06T05:22:19.108Z,7.59
2017-03-06T05:23:33.621Z,7.59
2017-03-06T05:24:48.794Z,7.58
2017-03-06T05:26:04.079Z,7.56
2017-03-06T05:27:18.543Z,7.55
2017-03-06T05:28:32.865Z,7.55
2017-03-06T05:31:06.130Z,7.55
2017-03-06T05:32:42.737Z,7.58
2017-03-06T05:33:56.789Z,7.69
2017-03-06T05:35:11.146Z,7.79
2017-03-06T05:36:26.312Z,7.91
2017-03-06T05:37:41.698Z,8.01
2017-03-06T05:38:56.492Z,8.06
2017-03-06T05:40:12.578Z,8.08
2017-03-06T05:41:28.711Z,8.09
2017-03-06T05:42:43.175Z,8.09
2017-03-06T05:43:57.836Z,8.08
2017-03-06T05:45:13.984Z,8.04
2017-03-06T05:46:29.151Z,7.98
2017-03-06T05:47:44.502Z,7.94
2017-03-06T05:49:00.121Z,7.89
2017-03-06T05:50:14.672Z,7.84
2017-03-06T05:51:29.364Z,7.79
2017-03-06T05:52:44.019Z,7.76
2017-03-06T05:53:58.253Z,7.75
2017-03-06T05:55:12.350Z,7.72
2017-03-06T05:56:26.775Z,7.7
2017-03-06T05:57:42.526Z,7.71
2017-03-06T05:58:56.562Z,7.71
2017-03-06T06:00:14.097Z,7.73
2017-03-06T06:01:28.914Z,7.74
2017-03-06T06:02:43.930Z,7.75
2017-03-06T06:03:59.077Z,7.76
2017-03-06T06:05:14.267Z,7.81
2017-03-06T06:06:28.775Z,7.83
2017-03-06T06:07:43.297Z,7.85
2017-03-06T06:08:59.218Z,7.87
2017-03-06T06:10:13.953Z,7.92
2017-03-06T06:11:30.744Z,7.95
2017-03-06T06:12:45.966Z,7.94
2017-03-06T06:13:59.959Z,7.95
2017-03-06T06:15:15.812Z,7.93
2017-03-06T06:16:29.840Z,7.92
2017-03-06T06:17:45.107Z,7.9
2017-03-06T06:18:59.706Z,7.9
2017-03-06T06:20:14.601Z,7.9
2017-03-06T06:21:29.797Z,7.89
2017-03-06T06:22:45.636Z,7.88
2017-03-06T06:24:00.738Z,7.86
2017-03-06T06:25:14.767Z,7.86
2017-03-06T06:26:29.073Z,7.86
2017-03-06T06:27:44.698Z,7.86
2017-03-06T06:28:58.624Z,7.85
2017-03-06T06:30:12.878Z,7.86
2017-03-06T06:31:27.325Z,7.86
2017-03-06T06:32:42.227Z,7.87
2017-03-06T06:33:56.248Z,7.86
2017-03-06T06:35:10.982Z,7.86
2017-03-06T06:36:24.983Z,7.88
2017-03-06T06:37:55.270Z,7.9
2017-03-06T06:39:10.397Z,7.95
2017-03-06T06:40:25.597Z,8.01
2017-03-06T06:41:42.417Z,8.04
2017-03-06T06:42:56.974Z,8.05
2017-03-06T06:44:12.388Z,8.07
2017-03-06T06:45:27.610Z,8.11
2017-03-06T06:46:43.559Z,8.12
2017-03-06T06:47:58.245Z,8.11
2017-03-06T06:49:13.923Z,8.11
2017-03-06T06:50:29.909Z,8.11
2017-03-06T06:51:44.885Z,8.14
2017-03-06T06:53:00.643Z,8.15
2017-03-06T06:54:16.762Z,8.14
2017-03-06T06:55:30.963Z,8.12
2017-03-06T06:56:47.017Z,8.11
2017-03-06T06:58:01.553Z,8.1
2017-03-06T06:59:16.825Z,8.1
2017-03-06T07:00:33.657Z,8.1
2017-03-06T07:01:50.005Z,8.14
2017-03-06T07:03:04.936Z,8.17
2017-03-06T07:04:19.549Z,8.17
2017-03-06T07:05:34.433Z,8.18
2017-03-06T07:06:49.556Z,8.17
2017-03-06T07:08:04.386Z,8.2
2017-03-06T07:09:19.640Z,8.21
2017-03-06T07:10:33.809Z,8.23
2017-03-06T07:11:48.970Z,8.23
2017-03-06T07:13:03.374Z,8.23
2017-03-06T07:14:18.057Z,8.2
2017-03-06T07:15:32.930Z,8.16
2017-03-06T07:16:47.766Z,8.14
2017-03-06T07:18:05.058Z,8.17
2017-03-06T07:19:19.573Z,8.19
2017-03-06T07:20:34.041Z,8.18
2017-03-06T07:21:49.324Z,8.19
2017-03-06T07:23:04.051Z,8.2
2017-03-06T07:24:19.578Z,8.26
2017-03-06T07:25:34.184Z,8.31
2017-03-06T07:26:50.414Z,8.34
2017-03-06T07:28:04.663Z,8.37
2017-03-06T07:29:18.877Z,8.39
2017-03-06T07:30:32.947Z,8.41
2017-03-06T07:31:47.488Z,8.42
2017-03-06T07:33:03.203Z,8.44
2017-03-06T07:34:17.960Z,8.44
2017-03-06T07:35:33.647Z,8.44
2017-03-06T07:36:47.672Z,8.43
2017-03-06T07:38:02.538Z,8.47
2017-03-06T07:39:17.099Z,8.49
2017-03-06T07:40:32.081Z,8.52
2017-03-06T07:41:48.394Z,8.52
2017-03-06T07:43:17.960Z,8.53
2017-03-06T07:44:33.876Z,8.58
2017-03-06T07:45:49.356Z,8.57
2017-03-06T07:47:04.332Z,8.57
2017-03-06T07:48:19.013Z,8.56
2017-03-06T07:49:33.321Z,8.55
2017-03-06T07:51:10.032Z,8.56
2017-03-06T07:52:24.677Z,8.57
2017-03-06T07:53:39.192Z,8.58
2017-03-06T07:54:53.410Z,8.61
2017-03-06T07:56:08.170Z,8.63
2017-03-06T07:57:22.385Z,8.66
2017-03-06T07:58:36.318Z,8.66
2017-03-06T07:59:50.563Z,8.68
2017-03-06T08:01:04.964Z,8.71
2017-03-06T08:02:19.524Z,8.72
2017-03-06T08:03:34.739Z,8.77
2017-03-06T08:04:50.152Z,8.83
2017-03-06T08:06:04.898Z,8.86
2017-03-06T08:07:19.248Z,8.87
2017-03-06T08:08:34.989Z,8.85
2017-03-06T08:09:49.646Z,8.84
2017-03-06T08:11:03.787Z,8.85
2017-03-06T08:12:18.170Z,8.86
2017-03-06T08:13:34.532Z,8.88
2017-03-06T08:14:50.025Z,8.88
2017-03-06T08:16:05.586Z,8.88
2017-03-06T08:17:23.637Z,8.9
2017-03-06T08:18:38.671Z,8.92
2017-03-06T08:19:52.840Z,8.96
2017-03-06T08:21:07.121Z,9
2017-03-06T08:22:23.754Z,9.08
2017-03-06T08:23:38.405Z,9.17
2017-03-06T08:24:52.751Z,9.24
2017-03-06T08:26:06.983Z,9.32
2017-03-06T08:27:39.189Z,9.43
2017-03-06T08:28:53.328Z,9.5
2017-03-06T08:30:07.707Z,9.5
2017-03-06T08:31:22.343Z,9.49
2017-03-06T08:32:36.767Z,9.46
2017-03-06T08:33:51.380Z,9.43
2017-03-06T08:35:05.634Z,9.4
2017-03-06T08:36:22.502Z,9.37
2017-03-06T08:37:36.541Z,9.34
2017-03-06T08:38:50.957Z,9.32
2017-03-06T08:40:05.344Z,9.3
2017-03-06T08:41:19.990Z,9.33
2017-03-06T08:42:33.970Z,9.34
2017-03-06T08:43:48.699Z,9.33
2017-03-06T08:45:02.679Z,9.33
2017-03-06T08:46:17.769Z,9.32
2017-03-06T08:47:32.073Z,9.32
2017-03-06T08:48:46.753Z,9.32
2017-03-06T08:50:01.247Z,9.33
2017-03-06T08:51:16.794Z,9.33
2017-03-06T08:52:30.841Z,9.33
2017-03-06T08:53:46.321Z,9.31
2017-03-06T08:55:00.808Z,9.31
2017-03-06T08:56:15.488Z,9.3
2017-03-06T08:57:29.915Z,9.27
2017-03-06T08:58:45.319Z,9.27
2017-03-06T09:00:00.815Z,9.26
2017-03-06T09:01:17.315Z,9.24
2017-03-06T09:02:32.574Z,9.25
2017-03-06T09:03:47.284Z,9.25
2017-03-06T09:05:01.964Z,9.26
2017-03-06T09:06:17.468Z,9.27
2017-03-06T09:07:31.486Z,9.26
2017-03-06T09:08:46.803Z,9.25
2017-03-06T09:10:03.898Z,9.26
2017-03-06T09:11:19.418Z,9.25
2017-03-06T09:12:34.730Z,9.26
2017-03-06T09:13:51.765Z,9.24
2017-03-06T09:15:06.885Z,9.22
2017-03-06T09:16:21.819Z,9.24
2017-03-06T09:17:37.298Z,9.26
2017-03-06T09:18:52.592Z,9.31
2017-03-06T09:20:07.580Z,9.38
2017-03-06T09:21:22.327Z,9.49
2017-03-06T09:22:37.910Z,9.57
2017-03-06T09:23:52.369Z,9.66
2017-03-06T09:25:07.078Z,9.75
2017-03-06T09:26:21.760Z,9.83
2017-03-06T09:27:50.913Z,9.93
2017-03-06T09:29:08.914Z,10.01
2017-03-06T09:30:26.144Z,10.16
2017-03-06T09:31:42.801Z,10.3
2017-03-06T09:32:58.058Z,10.44
2017-03-06T09:34:17.415Z,10.58
2017-03-06T09:35:35.510Z,10.63
2017-03-06T09:36:53.840Z,10.63
2017-03-06T09:38:14.733Z,10.66
2017-03-06T09:39:34.325Z,10.68
2017-03-06T09:40:52.190Z,10.66
2017-03-06T09:42:06.372Z,10.65
2017-03-06T09:43:20.750Z,10.61
2017-03-06T09:44:34.855Z,10.61
2017-03-06T09:45:49.460Z,10.6
2017-03-06T09:47:04.869Z,10.59
2017-03-06T09:48:19.679Z,10.56
2017-03-06T09:49:34.523Z,10.53
2017-03-06T09:50:48.969Z,10.56
2017-03-06T09:52:04.460Z,10.59
2017-03-06T09:53:18.449Z,10.66
2017-03-06T09:54:35.792Z,10.7
2017-03-06T09:55:50.918Z,10.75
2017-03-06T09:57:06.328Z,10.77
2017-03-06T09:58:20.936Z,10.77
2017-03-06T09:59:34.919Z,10.8
2017-03-06T10:00:49.266Z,10.79
2017-03-06T10:02:06.304Z,10.78
2017-03-06T10:03:21.787Z,10.78
2017-03-06T10:04:38.830Z,10.78
2017-03-06T10:05:55.152Z,10.8
2017-03-06T10:07:10.153Z,10.84
2017-03-06T10:08:50.357Z,10.91
2017-03-06T10:10:07.349Z,10.95
2017-03-06T10:11:24.449Z,10.94
2017-03-06T10:12:39.693Z,10.91
2017-03-06T10:13:55.682Z,10.85
2017-03-06T10:15:10.240Z,10.81
2017-03-06T10:16:25.941Z,10.78
2017-03-06T10:17:40.029Z,10.72
2017-03-06T10:18:55.435Z,10.67
2017-03-06T10:20:10.471Z,10.63
2017-03-06T10:21:25.249Z,10.6
2017-03-06T10:22:39.375Z,10.57
2017-03-06T10:23:54.061Z,10.52
2017-03-06T10:25:08.236Z,10.49
2017-03-06T10:26:22.450Z,10.49
2017-03-06T10:28:22.085Z,10.49
2017-03-06T10:29:38.576Z,10.5
2017-03-06T10:30:54.968Z,10.55
2017-03-06T10:32:22.292Z,10.63
2017-03-06T10:33:48.259Z,10.67
2017-03-06T10:35:04.724Z,10.69
2017-03-06T10:36:19.320Z,10.74
2017-03-06T10:37:34.924Z,10.77
2017-03-06T10:39:21.850Z,10.77
2017-03-06T10:40:49.203Z,10.77
2017-03-06T10:42:03.743Z,10.78
2017-03-06T10:43:18.970Z,10.76
2017-03-06T10:44:35.548Z,10.73
2017-03-06T10:45:51.771Z,10.67
2017-03-06T10:47:07.194Z,10.57
2017-03-06T10:48:22.220Z,10.48
2017-03-06T10:49:38.143Z,10.43
2017-03-06T10:50:53.234Z,10.44
2017-03-06T10:52:08.497Z,10.48
2017-03-06T10:53:24.858Z,10.54
2017-03-06T10:54:40.896Z,10.6
2017-03-06T10:55:56.070Z,10.62
2017-03-06T10:57:10.970Z,10.57
2017-03-06T10:58:26.453Z,10.48
2017-03-06T10:59:41.767Z,10.4
2017-03-06T11:01:35.177Z,10.33
2017-03-06T11:02:50.466Z,10.29
2017-03-06T11:04:05.746Z,10.28
2017-03-06T11:05:21.366Z,10.33
2017-03-06T11:06:35.636Z,10.38
2017-03-06T11:07:51.274Z,10.42
2017-03-06T11:09:06.512Z,10.48
2017-03-06T11:10:21.645Z,10.55
2017-03-06T11:11:36.114Z,10.67
2017-03-06T11:12:52.017Z,10.83
2017-03-06T11:14:07.594Z,10.97
2017-03-06T11:15:25.714Z,11.12
2017-03-06T11:16:40.590Z,11.21
2017-03-06T11:17:55.481Z,11.3
2017-03-06T11:19:09.955Z,11.35
2017-03-06T11:20:25.165Z,11.4
2017-03-06T11:21:40.498Z,11.43
2017-03-06T11:22:54.988Z,11.47
2017-03-06T11:24:09.344Z,11.52
2017-03-06T11:25:23.598Z,11.57
2017-03-06T11:26:39.656Z,11.62
2017-03-06T11:27:53.712Z,11.69
2017-03-06T11:29:22.547Z,11.7
2017-03-06T11:30:37.239Z,11.73
2017-03-06T11:31:52.433Z,11.73
2017-03-06T11:33:06.779Z,11.71
2017-03-06T11:34:21.062Z,11.7
2017-03-06T11:35:35.711Z,11.71
2017-03-06T11:36:52.718Z,11.76
2017-03-06T11:38:07.829Z,11.8
2017-03-06T11:39:21.775Z,11.79
2017-03-06T11:40:36.525Z,11.66
2017-03-06T11:41:52.292Z,11.56
2017-03-06T11:43:31.912Z,11.42
2017-03-06T11:45:32.926Z,11.33
2017-03-06T11:46:48.560Z,11.26
2017-03-06T11:48:02.585Z,11.22
2017-03-06T11:49:17.737Z,11.14
2017-03-06T11:50:32.226Z,11.07
2017-03-06T11:51:47.462Z,11.01
2017-03-06T11:53:02.026Z,11.01
2017-03-06T11:54:16.657Z,11.03
2017-03-06T11:55:31.970Z,11.05
2017-03-06T11:56:51.778Z,11.02
2017-03-06T11:58:06.791Z,11.01
2017-03-06T11:59:20.807Z,10.96
2017-03-06T12:00:35.475Z,10.93
2017-03-06T12:01:50.067Z,10.9
2017-03-06T12:03:04.760Z,10.89
2017-03-06T12:04:18.950Z,10.86
2017-03-06T12:05:33.349Z,10.81
2017-03-06T12:06:48.222Z,10.7
2017-03-06T12:08:02.489Z,10.65
2017-03-06T12:09:16.597Z,10.63
2017-03-06T12:10:31.725Z,10.55
2017-03-06T12:14:17.232Z,10.29
2017-03-06T12:15:31.703Z,10.23
2017-03-06T12:16:46.681Z,10.19
2017-03-06T12:18:02.722Z,10.17
2017-03-06T12:19:17.220Z,10.16
2017-03-06T12:20:49.526Z,10.14
2017-03-06T12:22:03.908Z,10.13
2017-03-06T12:23:18.713Z,10.15
2017-03-06T12:24:33.137Z,10.2
2017-03-06T12:25:48.173Z,10.26
2017-03-06T12:27:04.115Z,10.38
2017-03-06T12:28:19.896Z,10.49
2017-03-06T12:29:36.748Z,10.6
2017-03-06T12:30:53.466Z,10.67
2017-03-06T12:32:08.354Z,10.74
2017-03-06T12:33:33.205Z,10.81
2017-03-06T12:34:47.854Z,10.91
2017-03-06T12:36:05.163Z,10.98
2017-03-06T12:37:20.054Z,11.08
2017-03-06T12:38:35.191Z,11.15
2017-03-06T12:39:50.753Z,11.17
2017-03-06T12:41:04.908Z,11.16
2017-03-06T12:42:19.811Z,11.16
2017-03-06T12:43:34.503Z,11.21
2017-03-06T12:44:50.176Z,11.26
2017-03-06T12:46:50.651Z,11.26
2017-03-06T12:48:05.013Z,11.26
2017-03-06T12:49:19.434Z,11.28
2017-03-06T12:50:34.208Z,11.32
2017-03-06T12:51:49.682Z,11.34
2017-03-06T12:53:05.368Z,11.34
2017-03-06T12:54:20.632Z,11.28
2017-03-06T12:55:35.045Z,11.26
2017-03-06T12:56:50.798Z,11.27
2017-03-06T12:58:05.642Z,11.28
2017-03-06T12:59:20.253Z,11.3
2017-03-06T13:00:36.306Z,11.34
2017-03-06T13:01:52.482Z,11.41
2017-03-06T13:03:58.638Z,11.47
2017-03-06T13:05:15.462Z,11.6
2017-03-06T13:06:31.208Z,11.65
2017-03-06T13:08:22.803Z,11.68
2017-03-06T13:09:38.670Z,11.71
2017-03-06T13:10:54.277Z,11.71
2017-03-06T13:12:09.520Z,11.68
2017-03-06T13:13:24.637Z,11.7
2017-03-06T13:14:39.343Z,11.73
2017-03-06T13:15:53.759Z,11.79
2017-03-06T13:17:08.645Z,11.83
2017-03-06T13:18:23.296Z,11.88
2017-03-06T13:19:39.320Z,11.94
2017-03-06T13:20:54.143Z,12.01
2017-03-06T13:22:08.338Z,12.05
2017-03-06T13:23:23.251Z,12.03
2017-03-06T13:24:37.935Z,12.01
2017-03-06T13:25:52.045Z,12.03
2017-03-06T13:27:06.508Z,12.09
2017-03-06T13:28:22.328Z,12.11
2017-03-06T13:29:36.839Z,12.18
2017-03-06T13:30:52.352Z,12.23
2017-03-06T13:32:07.403Z,12.29
2017-03-06T13:33:22.142Z,12.33
2017-03-06T13:34:36.201Z,12.39
2017-03-06T13:35:50.986Z,12.42
2017-03-06T13:37:06.064Z,12.46
2017-03-06T13:38:23.545Z,12.48
2017-03-06T13:39:38.252Z,12.49
2017-03-06T13:40:52.897Z,12.5
2017-03-06T13:42:07.092Z,12.5
2017-03-06T13:43:23.794Z,12.49
2017-03-06T13:44:40.566Z,12.51
2017-03-06T13:46:10.118Z,12.51
2017-03-06T13:47:24.748Z,12.54
2017-03-06T13:48:39.782Z,12.59
2017-03-06T13:49:55.136Z,12.66
2017-03-06T13:51:11.742Z,12.74
2017-03-06T13:52:26.208Z,12.8
2017-03-06T13:53:41.907Z,12.88
2017-03-06T13:54:57.267Z,12.96
2017-03-06T13:56:14.701Z,13.04
2017-03-06T13:57:28.781Z,13.07
2017-03-06T13:58:44.312Z,13.09
2017-03-06T13:59:59.211Z,13.07
2017-03-06T14:01:13.896Z,13.07
2017-03-06T14:02:28.369Z,13.07
2017-03-06T14:03:42.523Z,13.1
2017-03-06T14:04:57.770Z,13.12
2017-03-06T14:06:14.007Z,13.17
2017-03-06T14:07:30.213Z,13.21
2017-03-06T14:08:45.711Z,13.26
2017-03-06T14:10:02.188Z,13.3
2017-03-06T14:11:32.960Z,13.31
2017-03-06T14:12:49.023Z,13.31
2017-03-06T14:14:03.945Z,13.31
2017-03-06T14:15:19.295Z,13.35
2017-03-06T14:16:33.644Z,13.4
2017-03-06T14:17:48.562Z,13.42
2017-03-06T14:19:02.750Z,13.43
2017-03-06T14:20:18.877Z,13.46
2017-03-06T14:21:33.262Z,13.45
2017-03-06T14:22:49.294Z,13.48
2017-03-06T14:24:04.646Z,13.49
2017-03-06T14:25:19.810Z,13.5
2017-03-06T14:26:34.382Z,13.51
2017-03-06T14:27:49.066Z,13.49
2017-03-06T14:29:05.012Z,13.45
2017-03-06T14:30:20.242Z,13.43
2017-03-06T14:31:34.978Z,13.44
2017-03-06T14:32:49.260Z,13.42
2017-03-06T14:34:03.720Z,13.37
2017-03-06T14:35:18.342Z,13.27
2017-03-06T14:36:32.929Z,13.18
2017-03-06T14:37:47.301Z,13.13
2017-03-06T14:39:01.775Z,13.16
2017-03-06T14:40:16.429Z,13.22
2017-03-06T14:41:32.538Z,13.25
2017-03-06T14:42:48.506Z,13.29
2017-03-06T14:44:04.695Z,13.35
2017-03-06T14:45:21.183Z,13.36
2017-03-06T14:46:35.401Z,13.34
2017-03-06T14:47:50.869Z,13.31
2017-03-06T14:49:05.746Z,13.3
2017-03-06T14:50:21.932Z,13.3
2017-03-06T14:51:36.845Z,13.3
2017-03-06T14:52:52.679Z,13.25
2017-03-06T14:54:07.302Z,13.19
2017-03-06T14:55:34.085Z,13.11
2017-03-06T14:56:48.501Z,13.06
2017-03-06T14:58:02.623Z,13.02
2017-03-06T14:59:17.501Z,12.97
2017-03-06T15:00:34.161Z,12.95
2017-03-06T15:01:50.074Z,12.91
2017-03-06T15:03:04.937Z,12.88
2017-03-06T15:04:19.281Z,12.82
2017-03-06T15:05:52.089Z,12.81
2017-03-06T15:07:08.248Z,12.79
2017-03-06T15:08:23.574Z,12.73
2017-03-06T15:09:38.142Z,12.7
2017-03-06T15:10:54.730Z,12.67
2017-03-06T15:12:09.047Z,12.65
2017-03-06T15:13:25.759Z,12.64
2017-03-06T15:14:42.853Z,12.65
2017-03-06T15:15:57.803Z,12.63
2017-03-06T15:17:12.810Z,12.62
2017-03-06T15:18:30.156Z,12.58
2017-03-06T15:19:44.391Z,12.57
2017-03-06T15:20:59.159Z,12.55
2017-03-06T15:22:14.237Z,12.52
2017-03-06T15:23:29.232Z,12.51
2017-03-06T15:24:45.968Z,12.49
2017-03-06T15:26:03.152Z,12.47
2017-03-06T15:27:18.931Z,12.46
2017-03-06T15:28:35.168Z,12.45
2017-03-06T15:30:13.487Z,12.43
2017-03-06T15:31:30.903Z,12.39
2017-03-06T15:33:01.463Z,12.37
2017-03-06T15:34:19.741Z,12.34
2017-03-06T15:36:23.241Z,12.34
2017-03-06T15:37:47.406Z,12.32
2017-03-06T15:39:12.737Z,12.3
2017-03-06T15:40:35.203Z,12.3
2017-03-06T15:42:00.527Z,12.31
2017-03-06T15:43:36.867Z,12.36
2017-03-06T15:45:01.432Z,12.4
2017-03-06T15:46:26.994Z,12.41
2017-03-06T15:47:49.807Z,12.38
2017-03-06T15:49:09.680Z,12.35
2017-03-06T15:50:24.540Z,12.32
2017-03-06T15:51:38.789Z,12.29
2017-03-06T15:52:54.096Z,12.24
2017-03-06T15:54:10.106Z,12.21
2017-03-06T15:55:26.183Z,12.18
2017-03-06T15:56:43.108Z,12.15
2017-03-06T15:57:58.847Z,12.15
2017-03-06T15:59:13.188Z,12.08
2017-03-06T16:00:41.748Z,12.02
2017-03-06T16:01:57.893Z,12
2017-03-06T16:03:12.872Z,11.96
2017-03-06T16:04:27.897Z,11.95
2017-03-06T16:05:42.346Z,11.93
2017-03-06T16:06:58.877Z,11.92
2017-03-06T16:08:13.572Z,11.9
2017-03-06T16:09:29.306Z,11.84
2017-03-06T16:10:45.573Z,11.72
2017-03-06T16:12:02.211Z,11.66
2017-03-06T16:13:17.157Z,11.64
2017-03-06T16:14:33.504Z,11.63
2017-03-06T16:15:49.314Z,11.6
2017-03-06T16:17:07.867Z,11.58
2017-03-06T16:18:23.282Z,11.58
2017-03-06T16:19:38.194Z,11.58
2017-03-06T16:20:54.293Z,11.54
2017-03-06T16:22:08.844Z,11.46
2017-03-06T16:23:25.088Z,11.4
2017-03-06T16:24:41.552Z,11.34
2017-03-06T16:25:55.642Z,11.31
2017-03-06T16:27:10.986Z,11.28
2017-03-06T16:28:25.615Z,11.26
2017-03-06T16:29:40.992Z,11.26
2017-03-06T16:31:15.432Z,11.31
2017-03-06T16:32:31.055Z,11.35
2017-03-06T16:33:46.292Z,11.35
2017-03-06T16:35:01.571Z,11.34
2017-03-06T16:36:28.550Z,11.34
2017-03-06T16:37:43.111Z,11.38
2017-03-06T16:38:58.936Z,11.41
2017-03-06T16:40:14.248Z,11.4
2017-03-06T16:41:28.463Z,11.38
2017-03-06T16:42:43.162Z,11.37
2017-03-06T16:43:57.669Z,11.34
2017-03-06T16:45:12.827Z,11.31
2017-03-06T16:46:27.313Z,11.28
2017-03-06T16:47:42.261Z,11.23
2017-03-06T16:48:56.652Z,11.17
2017-03-06T16:50:24.965Z,11.08
2017-03-06T16:51:39.524Z,11